sensor_id;sensor_type;location;lat;lon;timestamp;temperature;humidity
484;DHT22;228;48.922;12.198;2022-10-16T00:01:59;19.80;74.60
484;DHT22;228;48.922;12.198;2022-10-16T00:04:25;19.80;75.00
484;DHT22;228;48.922;12.198;2022-10-16T00:06:51;19.80;75.10
484;DHT22;228;48.922;12.198;2022-10-16T00:09:17;19.80;75.00
484;DHT22;228;48.922;12.198;2022-10-16T00:11:43;19.70;75.20
484;DHT22;228;48.922;12.198;2022-10-16T00:14:13;19.60;75.60
484;DHT22;228;48.922;12.198;2022-10-16T00:16:40;19.40;76.30
484;DHT22;228;48.922;12.198;2022-10-16T00:19:07;19.50;76.50
484;DHT22;228;48.922;12.198;2022-10-16T00:21:35;19.50;76.60
484;DHT22;228;48.922;12.198;2022-10-16T00:24:19;19.50;76.60
484;DHT22;228;48.922;12.198;2022-10-16T00:26:49;19.50;76.70
484;DHT22;228;48.922;12.198;2022-10-16T00:29:16;19.50;76.60
484;DHT22;228;48.922;12.198;2022-10-16T00:31:42;19.40;76.90
484;DHT22;228;48.922;12.198;2022-10-16T00:34:08;19.30;76.90
484;DHT22;228;48.922;12.198;2022-10-16T00:36:34;19.10;77.70
484;DHT22;228;48.922;12.198;2022-10-16T00:39:01;19.20;77.90
484;DHT22;228;48.922;12.198;2022-10-16T00:41:28;19.40;77.00
484;DHT22;228;48.922;12.198;2022-10-16T00:43:57;19.50;76.10
484;DHT22;228;48.922;12.198;2022-10-16T00:46:31;19.60;76.20
484;DHT22;228;48.922;12.198;2022-10-16T00:49:18;19.60;76.20
484;DHT22;228;48.922;12.198;2022-10-16T00:51:47;19.60;76.20
484;DHT22;228;48.922;12.198;2022-10-16T00:54:27;19.60;75.50
484;DHT22;228;48.922;12.198;2022-10-16T00:56:58;19.60;75.40
484;DHT22;228;48.922;12.198;2022-10-16T00:59:35;19.60;75.60
484;DHT22;228;48.922;12.198;2022-10-16T01:02:04;19.60;75.60
484;DHT22;228;48.922;12.198;2022-10-16T01:04:47;19.30;76.10
484;DHT22;228;48.922;12.198;2022-10-16T01:07:33;19.30;76.40
484;DHT22;228;48.922;12.198;2022-10-16T01:10:27;19.50;76.00
484;DHT22;228;48.922;12.198;2022-10-16T01:15:49;19.70;75.20
484;DHT22;228;48.922;12.198;2022-10-16T01:18:43;19.60;75.00
484;DHT22;228;48.922;12.198;2022-10-16T01:21:24;19.60;75.30
484;DHT22;228;48.922;12.198;2022-10-16T01:27:40;19.60;74.90
484;DHT22;228;48.922;12.198;2022-10-16T01:30:21;19.60;74.90
484;DHT22;228;48.922;12.198;2022-10-16T01:32:59;19.60;74.70
484;DHT22;228;48.922;12.198;2022-10-16T01:35:36;19.60;74.50
484;DHT22;228;48.922;12.198;2022-10-16T01:38:30;19.60;74.40
484;DHT22;228;48.922;12.198;2022-10-16T01:41:03;19.50;74.40
484;DHT22;228;48.922;12.198;2022-10-16T01:43:39;19.50;74.40
484;DHT22;228;48.922;12.198;2022-10-16T01:46:07;19.50;74.40
484;DHT22;228;48.922;12.198;2022-10-16T01:48:35;19.40;74.60
484;DHT22;228;48.922;12.198;2022-10-16T01:51:08;19.30;75.00
484;DHT22;228;48.922;12.198;2022-10-16T01:53:37;19.20;75.00
484;DHT22;228;48.922;12.198;2022-10-16T01:56:08;19.20;75.10
484;DHT22;228;48.922;12.198;2022-10-16T01:58:41;19.00;75.90
484;DHT22;228;48.922;12.198;2022-10-16T02:01:11;18.90;76.30
484;DHT22;228;48.922;12.198;2022-10-16T02:03:42;18.90;76.50
484;DHT22;228;48.922;12.198;2022-10-16T02:06:10;18.90;76.20
484;DHT22;228;48.922;12.198;2022-10-16T02:08:37;19.00;75.80
484;DHT22;228;48.922;12.198;2022-10-16T02:11:06;19.00;75.50
484;DHT22;228;48.922;12.198;2022-10-16T02:16:01;19.00;75.30
484;DHT22;228;48.922;12.198;2022-10-16T02:18:28;18.90;75.30
484;DHT22;228;48.922;12.198;2022-10-16T02:21:14;18.80;75.30
484;DHT22;228;48.922;12.198;2022-10-16T02:26:43;18.70;75.20
484;DHT22;228;48.922;12.198;2022-10-16T02:29:44;18.70;75.40
484;DHT22;228;48.922;12.198;2022-10-16T02:32:20;18.70;75.20
484;DHT22;228;48.922;12.198;2022-10-16T02:34:48;18.60;75.30
484;DHT22;228;48.922;12.198;2022-10-16T02:37:16;18.50;75.90
484;DHT22;228;48.922;12.198;2022-10-16T02:39:43;18.50;76.10
484;DHT22;228;48.922;12.198;2022-10-16T02:42:15;18.60;75.90
484;DHT22;228;48.922;12.198;2022-10-16T02:44:41;18.60;75.70
484;DHT22;228;48.922;12.198;2022-10-16T02:47:07;18.60;75.70
484;DHT22;228;48.922;12.198;2022-10-16T02:49:33;18.50;75.80
484;DHT22;228;48.922;12.198;2022-10-16T02:51:59;18.60;75.90
484;DHT22;228;48.922;12.198;2022-10-16T02:54:25;18.40;75.80
484;DHT22;228;48.922;12.198;2022-10-16T02:56:51;18.30;76.30
484;DHT22;228;48.922;12.198;2022-10-16T02:59:17;18.10;76.90
484;DHT22;228;48.922;12.198;2022-10-16T03:01:43;17.80;78.60
484;DHT22;228;48.922;12.198;2022-10-16T03:04:09;18.10;78.40
484;DHT22;228;48.922;12.198;2022-10-16T03:06:36;18.20;77.70
484;DHT22;228;48.922;12.198;2022-10-16T03:09:02;18.30;77.20
484;DHT22;228;48.922;12.198;2022-10-16T03:11:28;18.40;76.90
484;DHT22;228;48.922;12.198;2022-10-16T03:13:54;18.50;76.50
484;DHT22;228;48.922;12.198;2022-10-16T03:16:20;18.50;76.70
484;DHT22;228;48.922;12.198;2022-10-16T03:18:49;18.50;76.90
484;DHT22;228;48.922;12.198;2022-10-16T03:21:16;18.50;76.70
484;DHT22;228;48.922;12.198;2022-10-16T03:23:42;18.30;77.90
484;DHT22;228;48.922;12.198;2022-10-16T03:26:08;18.40;77.80
484;DHT22;228;48.922;12.198;2022-10-16T03:28:34;18.20;78.10
484;DHT22;228;48.922;12.198;2022-10-16T03:31:00;18.40;78.00
484;DHT22;228;48.922;12.198;2022-10-16T03:33:26;18.60;77.10
484;DHT22;228;48.922;12.198;2022-10-16T03:35:53;18.70;76.20
484;DHT22;228;48.922;12.198;2022-10-16T03:38:21;18.60;76.40
484;DHT22;228;48.922;12.198;2022-10-16T03:40:47;18.60;76.30
484;DHT22;228;48.922;12.198;2022-10-16T03:43:13;18.40;77.00
484;DHT22;228;48.922;12.198;2022-10-16T03:45:39;18.50;77.40
484;DHT22;228;48.922;12.198;2022-10-16T03:48:05;18.60;76.70
484;DHT22;228;48.922;12.198;2022-10-16T03:50:31;18.50;76.20
484;DHT22;228;48.922;12.198;2022-10-16T03:52:57;18.30;76.70
484;DHT22;228;48.922;12.198;2022-10-16T03:55:24;18.00;78.10
484;DHT22;228;48.922;12.198;2022-10-16T03:57:49;17.80;78.20
484;DHT22;228;48.922;12.198;2022-10-16T04:00:15;17.60;79.90
484;DHT22;228;48.922;12.198;2022-10-16T04:02:42;17.80;79.20
484;DHT22;228;48.922;12.198;2022-10-16T04:05:08;17.90;78.30
484;DHT22;228;48.922;12.198;2022-10-16T04:07:34;18.00;77.50
484;DHT22;228;48.922;12.198;2022-10-16T04:10:00;18.00;77.40
484;DHT22;228;48.922;12.198;2022-10-16T04:12:27;18.10;77.30
484;DHT22;228;48.922;12.198;2022-10-16T04:14:53;18.00;77.50
484;DHT22;228;48.922;12.198;2022-10-16T04:17:19;17.90;78.40
484;DHT22;228;48.922;12.198;2022-10-16T04:19:45;17.90;79.10
484;DHT22;228;48.922;12.198;2022-10-16T04:22:11;18.00;78.60
484;DHT22;228;48.922;12.198;2022-10-16T04:24:37;18.00;78.50
484;DHT22;228;48.922;12.198;2022-10-16T04:27:03;18.10;78.80
484;DHT22;228;48.922;12.198;2022-10-16T04:29:29;18.10;78.70
484;DHT22;228;48.922;12.198;2022-10-16T04:31:55;18.30;78.10
484;DHT22;228;48.922;12.198;2022-10-16T04:34:21;18.30;77.70
484;DHT22;228;48.922;12.198;2022-10-16T04:36:47;18.40;77.40
484;DHT22;228;48.922;12.198;2022-10-16T04:39:15;18.50;76.90
484;DHT22;228;48.922;12.198;2022-10-16T04:41:42;18.60;76.50
484;DHT22;228;48.922;12.198;2022-10-16T04:44:08;18.60;76.20
484;DHT22;228;48.922;12.198;2022-10-16T04:46:34;18.70;75.70
484;DHT22;228;48.922;12.198;2022-10-16T04:49:00;18.60;76.00
484;DHT22;228;48.922;12.198;2022-10-16T04:51:26;18.60;76.20
484;DHT22;228;48.922;12.198;2022-10-16T04:53:53;18.60;75.90
484;DHT22;228;48.922;12.198;2022-10-16T04:56:20;18.40;76.50
484;DHT22;228;48.922;12.198;2022-10-16T04:58:47;18.50;76.20
484;DHT22;228;48.922;12.198;2022-10-16T05:01:13;18.50;75.80
484;DHT22;228;48.922;12.198;2022-10-16T05:03:39;18.20;76.80
484;DHT22;228;48.922;12.198;2022-10-16T05:06:06;17.70;78.30
484;DHT22;228;48.922;12.198;2022-10-16T05:08:32;17.60;79.50
484;DHT22;228;48.922;12.198;2022-10-16T05:10:58;17.80;78.50
484;DHT22;228;48.922;12.198;2022-10-16T05:13:25;17.70;78.50
484;DHT22;228;48.922;12.198;2022-10-16T05:15:51;17.90;77.50
484;DHT22;228;48.922;12.198;2022-10-16T05:18:17;18.00;76.30
484;DHT22;228;48.922;12.198;2022-10-16T05:20:43;18.10;76.10
484;DHT22;228;48.922;12.198;2022-10-16T05:23:09;18.10;75.70
484;DHT22;228;48.922;12.198;2022-10-16T05:25:36;17.60;77.00
484;DHT22;228;48.922;12.198;2022-10-16T05:28:02;17.60;78.40
484;DHT22;228;48.922;12.198;2022-10-16T05:30:28;17.70;77.70
484;DHT22;228;48.922;12.198;2022-10-16T05:32:54;17.60;77.90
484;DHT22;228;48.922;12.198;2022-10-16T05:35:21;17.60;78.00
484;DHT22;228;48.922;12.198;2022-10-16T05:37:47;17.70;77.80
484;DHT22;228;48.922;12.198;2022-10-16T05:40:14;17.80;77.60
484;DHT22;228;48.922;12.198;2022-10-16T05:42:41;17.90;77.70
484;DHT22;228;48.922;12.198;2022-10-16T05:45:09;17.70;78.40
484;DHT22;228;48.922;12.198;2022-10-16T05:47:37;17.40;80.40
484;DHT22;228;48.922;12.198;2022-10-16T05:50:04;17.20;80.60
484;DHT22;228;48.922;12.198;2022-10-16T05:52:30;17.40;80.60
484;DHT22;228;48.922;12.198;2022-10-16T05:54:56;17.10;82.40
484;DHT22;228;48.922;12.198;2022-10-16T05:57:22;17.20;82.00
484;DHT22;228;48.922;12.198;2022-10-16T05:59:48;17.20;81.50
484;DHT22;228;48.922;12.198;2022-10-16T06:02:14;17.50;81.00
484;DHT22;228;48.922;12.198;2022-10-16T06:04:40;17.70;80.30
484;DHT22;228;48.922;12.198;2022-10-16T06:07:07;17.90;79.50
484;DHT22;228;48.922;12.198;2022-10-16T06:09:33;18.00;78.80
484;DHT22;228;48.922;12.198;2022-10-16T06:11:59;17.80;78.80
484;DHT22;228;48.922;12.198;2022-10-16T06:14:25;17.90;79.20
484;DHT22;228;48.922;12.198;2022-10-16T06:16:51;17.90;79.10
484;DHT22;228;48.922;12.198;2022-10-16T06:19:17;17.60;79.60
484;DHT22;228;48.922;12.198;2022-10-16T06:21:44;17.60;80.30
484;DHT22;228;48.922;12.198;2022-10-16T06:24:10;17.50;80.30
484;DHT22;228;48.922;12.198;2022-10-16T06:26:37;17.20;81.70
484;DHT22;228;48.922;12.198;2022-10-16T06:29:04;17.50;81.20
484;DHT22;228;48.922;12.198;2022-10-16T06:31:30;17.30;81.30
484;DHT22;228;48.922;12.198;2022-10-16T06:33:59;17.50;81.70
484;DHT22;228;48.922;12.198;2022-10-16T06:36:26;17.30;81.30
484;DHT22;228;48.922;12.198;2022-10-16T06:38:53;17.20;82.00
484;DHT22;228;48.922;12.198;2022-10-16T06:41:21;17.30;81.80
484;DHT22;228;48.922;12.198;2022-10-16T06:43:48;17.50;81.40
484;DHT22;228;48.922;12.198;2022-10-16T06:46:17;17.60;80.40
484;DHT22;228;48.922;12.198;2022-10-16T06:48:45;17.60;80.20
484;DHT22;228;48.922;12.198;2022-10-16T06:51:16;17.70;79.70
484;DHT22;228;48.922;12.198;2022-10-16T06:53:45;17.90;79.30
484;DHT22;228;48.922;12.198;2022-10-16T06:58:50;17.90;79.20
484;DHT22;228;48.922;12.198;2022-10-16T07:01:21;17.90;79.00
484;DHT22;228;48.922;12.198;2022-10-16T07:03:48;17.90;79.50
484;DHT22;228;48.922;12.198;2022-10-16T07:06:17;17.90;80.20
484;DHT22;228;48.922;12.198;2022-10-16T07:08:46;18.00;80.40
484;DHT22;228;48.922;12.198;2022-10-16T07:11:15;18.10;79.70
484;DHT22;228;48.922;12.198;2022-10-16T07:13:45;18.20;79.60
484;DHT22;228;48.922;12.198;2022-10-16T07:16:17;18.50;78.50
484;DHT22;228;48.922;12.198;2022-10-16T07:18:45;18.60;77.80
484;DHT22;228;48.922;12.198;2022-10-16T07:21:16;18.30;79.10
484;DHT22;228;48.922;12.198;2022-10-16T07:23:53;18.30;79.10
484;DHT22;228;48.922;12.198;2022-10-16T07:26:22;18.70;79.10
484;DHT22;228;48.922;12.198;2022-10-16T07:28:49;19.50;77.30
484;DHT22;228;48.922;12.198;2022-10-16T07:31:17;19.80;76.40
484;DHT22;228;48.922;12.198;2022-10-16T07:33:46;20.00;75.00
484;DHT22;228;48.922;12.198;2022-10-16T07:36:14;19.60;75.60
484;DHT22;228;48.922;12.198;2022-10-16T07:38:42;19.40;75.90
484;DHT22;228;48.922;12.198;2022-10-16T07:41:14;19.50;76.20
484;DHT22;228;48.922;12.198;2022-10-16T07:43:46;19.10;78.00
484;DHT22;228;48.922;12.198;2022-10-16T07:46:13;19.10;77.80
484;DHT22;228;48.922;12.198;2022-10-16T07:48:40;19.20;77.40
484;DHT22;228;48.922;12.198;2022-10-16T07:51:07;19.10;77.70
484;DHT22;228;48.922;12.198;2022-10-16T07:53:33;19.00;78.80
484;DHT22;228;48.922;12.198;2022-10-16T07:56:01;19.10;77.70
484;DHT22;228;48.922;12.198;2022-10-16T07:58:30;19.10;78.00
484;DHT22;228;48.922;12.198;2022-10-16T08:00:57;19.50;77.60
484;DHT22;228;48.922;12.198;2022-10-16T08:03:24;19.90;76.70
484;DHT22;228;48.922;12.198;2022-10-16T08:05:50;19.70;76.30
484;DHT22;228;48.922;12.198;2022-10-16T08:08:17;19.70;76.20
484;DHT22;228;48.922;12.198;2022-10-16T08:10:44;19.80;76.80
484;DHT22;228;48.922;12.198;2022-10-16T08:13:11;20.00;77.80
484;DHT22;228;48.922;12.198;2022-10-16T08:15:38;20.40;74.60
484;DHT22;228;48.922;12.198;2022-10-16T08:18:05;20.40;74.30
484;DHT22;228;48.922;12.198;2022-10-16T08:20:32;21.10;73.60
484;DHT22;228;48.922;12.198;2022-10-16T08:22:59;20.60;72.60
484;DHT22;228;48.922;12.198;2022-10-16T08:25:26;20.40;74.40
484;DHT22;228;48.922;12.198;2022-10-16T08:27:52;20.40;73.90
484;DHT22;228;48.922;12.198;2022-10-16T08:30:19;20.70;72.90
484;DHT22;228;48.922;12.198;2022-10-16T08:32:46;20.50;74.10
484;DHT22;228;48.922;12.198;2022-10-16T08:35:13;21.30;72.50
484;DHT22;228;48.922;12.198;2022-10-16T08:37:40;21.50;71.30
484;DHT22;228;48.922;12.198;2022-10-16T08:40:22;21.00;72.00
484;DHT22;228;48.922;12.198;2022-10-16T08:46:06;21.00;73.70
484;DHT22;228;48.922;12.198;2022-10-16T08:48:47;21.40;72.90
484;DHT22;228;48.922;12.198;2022-10-16T08:51:24;21.80;71.50
484;DHT22;228;48.922;12.198;2022-10-16T08:56:23;22.00;69.80
484;DHT22;228;48.922;12.198;2022-10-16T08:58:51;22.10;71.10
484;DHT22;228;48.922;12.198;2022-10-16T09:01:19;22.30;70.00
484;DHT22;228;48.922;12.198;2022-10-16T09:10:21;22.20;69.10
484;DHT22;228;48.922;12.198;2022-10-16T09:13:06;22.10;71.10
484;DHT22;228;48.922;12.198;2022-10-16T09:15:43;21.80;70.40
484;DHT22;228;48.922;12.198;2022-10-16T09:21:44;21.80;70.80
484;DHT22;228;48.922;12.198;2022-10-16T09:23:54;21.50;73.60
484;DHT22;228;48.922;12.198;2022-10-16T09:26:24;22.00;72.00
484;DHT22;228;48.922;12.198;2022-10-16T09:28:52;22.20;70.00
484;DHT22;228;48.922;12.198;2022-10-16T09:31:21;22.50;69.60
484;DHT22;228;48.922;12.198;2022-10-16T09:34:20;22.10;69.50
484;DHT22;228;48.922;12.198;2022-10-16T09:36:52;22.00;70.60
484;DHT22;228;48.922;12.198;2022-10-16T09:39:18;21.80;70.90
484;DHT22;228;48.922;12.198;2022-10-16T09:41:45;21.90;71.30
484;DHT22;228;48.922;12.198;2022-10-16T09:44:30;22.00;70.60
484;DHT22;228;48.922;12.198;2022-10-16T09:47:25;22.40;70.40
484;DHT22;228;48.922;12.198;2022-10-16T09:52:20;22.80;70.00
484;DHT22;228;48.922;12.198;2022-10-16T09:54:59;22.70;68.10
484;DHT22;228;48.922;12.198;2022-10-16T09:57:27;22.70;68.60
484;DHT22;228;48.922;12.198;2022-10-16T09:59:58;22.40;69.90
484;DHT22;228;48.922;12.198;2022-10-16T10:02:34;22.60;69.20
484;DHT22;228;48.922;12.198;2022-10-16T10:05:02;22.70;67.70
484;DHT22;228;48.922;12.198;2022-10-16T10:07:37;23.10;67.80
484;DHT22;228;48.922;12.198;2022-10-16T10:10:18;23.20;67.30
484;DHT22;228;48.922;12.198;2022-10-16T10:12:46;23.40;64.70
484;DHT22;228;48.922;12.198;2022-10-16T10:15:14;23.80;66.10
484;DHT22;228;48.922;12.198;2022-10-16T10:17:55;23.80;63.30
484;DHT22;228;48.922;12.198;2022-10-16T10:22:56;24.20;62.50
484;DHT22;228;48.922;12.198;2022-10-16T10:25:48;24.30;61.50
484;DHT22;228;48.922;12.198;2022-10-16T10:31:26;24.60;61.90
484;DHT22;228;48.922;12.198;2022-10-16T10:34:08;24.30;61.70
484;DHT22;228;48.922;12.198;2022-10-16T10:36:49;24.30;60.80
484;DHT22;228;48.922;12.198;2022-10-16T10:39:38;24.70;62.90
484;DHT22;228;48.922;12.198;2022-10-16T10:45:25;24.80;63.10
484;DHT22;228;48.922;12.198;2022-10-16T10:56:37;25.00;60.60
484;DHT22;228;48.922;12.198;2022-10-16T11:02:37;26.30;56.80
484;DHT22;228;48.922;12.198;2022-10-16T11:05:47;26.30;56.90
484;DHT22;228;48.922;12.198;2022-10-16T11:11:18;25.90;57.50
484;DHT22;228;48.922;12.198;2022-10-16T11:13:53;26.80;55.20
484;DHT22;228;48.922;12.198;2022-10-16T11:16:30;28.40;52.50
484;DHT22;228;48.922;12.198;2022-10-16T11:19:14;30.80;46.80
484;DHT22;228;48.922;12.198;2022-10-16T11:21:59;32.90;40.10
484;DHT22;228;48.922;12.198;2022-10-16T11:24:57;34.50;37.40
484;DHT22;228;48.922;12.198;2022-10-16T11:27:39;33.90;37.30
484;DHT22;228;48.922;12.198;2022-10-16T11:30:29;34.20;38.30
484;DHT22;228;48.922;12.198;2022-10-16T11:35:48;33.80;37.90
484;DHT22;228;48.922;12.198;2022-10-16T11:50:33;39.80;28.40
484;DHT22;228;48.922;12.198;2022-10-16T11:56:22;41.80;26.20
484;DHT22;228;48.922;12.198;2022-10-16T11:59:06;41.50;26.00
484;DHT22;228;48.922;12.198;2022-10-16T12:01:49;40.90;25.80
484;DHT22;228;48.922;12.198;2022-10-16T12:04:53;41.10;26.30
484;DHT22;228;48.922;12.198;2022-10-16T12:07:46;41.70;25.80
484;DHT22;228;48.922;12.198;2022-10-16T12:10:25;42.10;25.10
484;DHT22;228;48.922;12.198;2022-10-16T12:12:53;41.00;25.10
484;DHT22;228;48.922;12.198;2022-10-16T12:15:31;39.20;27.00
484;DHT22;228;48.922;12.198;2022-10-16T12:17:58;38.00;27.30
484;DHT22;228;48.922;12.198;2022-10-16T12:20:28;37.70;28.90
484;DHT22;228;48.922;12.198;2022-10-16T12:23:00;36.90;30.40
484;DHT22;228;48.922;12.198;2022-10-16T12:25:37;34.90;32.10
484;DHT22;228;48.922;12.198;2022-10-16T12:30:42;32.30;36.60
484;DHT22;228;48.922;12.198;2022-10-16T12:33:22;31.10;40.00
484;DHT22;228;48.922;12.198;2022-10-16T12:35:58;31.20;40.60
484;DHT22;228;48.922;12.198;2022-10-16T12:38:45;31.00;40.40
484;DHT22;228;48.922;12.198;2022-10-16T12:41:34;30.70;39.40
484;DHT22;228;48.922;12.198;2022-10-16T12:44:02;31.10;40.10
484;DHT22;228;48.922;12.198;2022-10-16T12:49:50;30.60;41.60
484;DHT22;228;48.922;12.198;2022-10-16T12:51:54;32.70;36.90
484;DHT22;228;48.922;12.198;2022-10-16T12:57:18;33.50;35.30
484;DHT22;228;48.922;12.198;2022-10-16T13:11:22;33.80;34.30
484;DHT22;228;48.922;12.198;2022-10-16T13:14:30;34.00;34.80
484;DHT22;228;48.922;12.198;2022-10-16T13:28:41;32.20;36.70
484;DHT22;228;48.922;12.198;2022-10-16T13:31:19;32.00;37.70
484;DHT22;228;48.922;12.198;2022-10-16T13:33:52;31.80;37.40
484;DHT22;228;48.922;12.198;2022-10-16T13:36:26;31.20;38.80
484;DHT22;228;48.922;12.198;2022-10-16T13:39:28;30.70;40.90
484;DHT22;228;48.922;12.198;2022-10-16T13:44:34;32.40;41.10
484;DHT22;228;48.922;12.198;2022-10-16T13:47:02;35.50;36.10
484;DHT22;228;48.922;12.198;2022-10-16T13:49:29;37.70;32.10
484;DHT22;228;48.922;12.198;2022-10-16T13:51:57;39.20;30.20
484;DHT22;228;48.922;12.198;2022-10-16T13:54:26;39.90;29.30
484;DHT22;228;48.922;12.198;2022-10-16T13:56:52;40.30;28.90
484;DHT22;228;48.922;12.198;2022-10-16T13:59:27;40.00;29.60
484;DHT22;228;48.922;12.198;2022-10-16T14:02:31;40.60;28.20
484;DHT22;228;48.922;12.198;2022-10-16T14:05:02;40.50;28.30
484;DHT22;228;48.922;12.198;2022-10-16T14:07:32;39.80;29.00
484;DHT22;228;48.922;12.198;2022-10-16T14:10:20;39.20;29.90
484;DHT22;228;48.922;12.198;2022-10-16T14:12:57;39.20;30.00
484;DHT22;228;48.922;12.198;2022-10-16T14:15:29;39.40;29.80
484;DHT22;228;48.922;12.198;2022-10-16T14:17:56;38.90;30.30
484;DHT22;228;48.922;12.198;2022-10-16T14:20:27;38.30;30.80
484;DHT22;228;48.922;12.198;2022-10-16T14:25:31;38.30;31.20
484;DHT22;228;48.922;12.198;2022-10-16T14:27:59;36.60;34.30
484;DHT22;228;48.922;12.198;2022-10-16T14:30:30;36.20;34.50
484;DHT22;228;48.922;12.198;2022-10-16T14:33:01;35.80;35.30
484;DHT22;228;48.922;12.198;2022-10-16T14:35:38;35.00;36.30
484;DHT22;228;48.922;12.198;2022-10-16T14:38:06;34.90;36.90
484;DHT22;228;48.922;12.198;2022-10-16T14:40:47;35.00;37.10
484;DHT22;228;48.922;12.198;2022-10-16T14:43:31;34.50;37.20
484;DHT22;228;48.922;12.198;2022-10-16T14:46:00;33.60;39.70
484;DHT22;228;48.922;12.198;2022-10-16T14:48:27;33.50;40.00
484;DHT22;228;48.922;12.198;2022-10-16T14:50:54;33.90;39.10
484;DHT22;228;48.922;12.198;2022-10-16T14:53:20;34.10;38.30
484;DHT22;228;48.922;12.198;2022-10-16T14:55:47;33.30;40.00
484;DHT22;228;48.922;12.198;2022-10-16T14:58:23;32.50;41.20
484;DHT22;228;48.922;12.198;2022-10-16T15:00:50;31.50;44.10
484;DHT22;228;48.922;12.198;2022-10-16T15:03:17;30.70;45.20
484;DHT22;228;48.922;12.198;2022-10-16T15:05:43;30.10;46.80
484;DHT22;228;48.922;12.198;2022-10-16T15:08:09;29.90;48.00
484;DHT22;228;48.922;12.198;2022-10-16T15:10:40;29.60;48.80
484;DHT22;228;48.922;12.198;2022-10-16T15:13:11;28.70;50.70
484;DHT22;228;48.922;12.198;2022-10-16T15:15:46;28.30;52.00
484;DHT22;228;48.922;12.198;2022-10-16T15:18:15;27.80;53.30
484;DHT22;228;48.922;12.198;2022-10-16T15:20:48;27.60;54.40
484;DHT22;228;48.922;12.198;2022-10-16T15:23:17;26.90;55.90
484;DHT22;228;48.922;12.198;2022-10-16T15:25:55;26.30;58.00
484;DHT22;228;48.922;12.198;2022-10-16T15:28:23;26.10;59.80
484;DHT22;228;48.922;12.198;2022-10-16T15:30:54;25.70;60.50
484;DHT22;228;48.922;12.198;2022-10-16T15:33:27;25.70;60.80
484;DHT22;228;48.922;12.198;2022-10-16T15:35:55;25.70;61.40
484;DHT22;228;48.922;12.198;2022-10-16T15:38:22;25.60;61.90
484;DHT22;228;48.922;12.198;2022-10-16T15:40:52;25.30;62.80
484;DHT22;228;48.922;12.198;2022-10-16T15:43:18;25.40;62.60
484;DHT22;228;48.922;12.198;2022-10-16T15:48:28;25.10;63.30
484;DHT22;228;48.922;12.198;2022-10-16T15:50:55;25.10;63.70
484;DHT22;228;48.922;12.198;2022-10-16T15:53:27;25.00;63.50
484;DHT22;228;48.922;12.198;2022-10-16T15:55:53;24.90;63.80
484;DHT22;228;48.922;12.198;2022-10-16T15:58:19;24.60;65.00
484;DHT22;228;48.922;12.198;2022-10-16T16:00:45;24.50;66.00
484;DHT22;228;48.922;12.198;2022-10-16T16:03:20;24.20;66.60
484;DHT22;228;48.922;12.198;2022-10-16T16:05:46;24.00;67.50
484;DHT22;228;48.922;12.198;2022-10-16T16:08:12;23.80;67.80
484;DHT22;228;48.922;12.198;2022-10-16T16:10:38;23.40;69.60
484;DHT22;228;48.922;12.198;2022-10-16T16:13:04;23.40;70.80
484;DHT22;228;48.922;12.198;2022-10-16T16:15:30;23.20;70.10
484;DHT22;228;48.922;12.198;2022-10-16T16:17:57;22.90;71.40
484;DHT22;228;48.922;12.198;2022-10-16T16:20:23;22.80;72.00
484;DHT22;228;48.922;12.198;2022-10-16T16:22:49;22.80;71.70
484;DHT22;228;48.922;12.198;2022-10-16T16:25:15;22.80;71.60
484;DHT22;228;48.922;12.198;2022-10-16T16:27:41;22.80;72.00
484;DHT22;228;48.922;12.198;2022-10-16T16:30:09;22.60;71.80
484;DHT22;228;48.922;12.198;2022-10-16T16:32:36;22.50;72.50
484;DHT22;228;48.922;12.198;2022-10-16T16:35:03;22.30;73.60
484;DHT22;228;48.922;12.198;2022-10-16T16:37:30;22.30;73.90
484;DHT22;228;48.922;12.198;2022-10-16T16:39:57;22.20;74.40
484;DHT22;228;48.922;12.198;2022-10-16T16:42:27;22.20;74.20
484;DHT22;228;48.922;12.198;2022-10-16T16:44:53;22.20;74.40
484;DHT22;228;48.922;12.198;2022-10-16T16:47:20;22.10;74.80
484;DHT22;228;48.922;12.198;2022-10-16T16:49:46;22.00;75.20
484;DHT22;228;48.922;12.198;2022-10-16T16:52:13;21.90;75.60
484;DHT22;228;48.922;12.198;2022-10-16T16:54:39;21.70;75.80
484;DHT22;228;48.922;12.198;2022-10-16T16:57:05;21.70;76.40
484;DHT22;228;48.922;12.198;2022-10-16T16:59:31;21.70;76.30
484;DHT22;228;48.922;12.198;2022-10-16T17:02:00;21.70;76.30
484;DHT22;228;48.922;12.198;2022-10-16T17:04:26;21.60;76.30
484;DHT22;228;48.922;12.198;2022-10-16T17:06:54;21.60;75.80
484;DHT22;228;48.922;12.198;2022-10-16T17:09:20;21.60;76.20
484;DHT22;228;48.922;12.198;2022-10-16T17:11:47;21.60;76.00
484;DHT22;228;48.922;12.198;2022-10-16T17:14:14;21.50;76.20
484;DHT22;228;48.922;12.198;2022-10-16T17:16:41;21.50;76.40
484;DHT22;228;48.922;12.198;2022-10-16T17:19:14;21.50;76.30
484;DHT22;228;48.922;12.198;2022-10-16T17:21:42;21.40;76.70
484;DHT22;228;48.922;12.198;2022-10-16T17:24:08;21.30;76.90
484;DHT22;228;48.922;12.198;2022-10-16T17:26:35;21.20;77.90
484;DHT22;228;48.922;12.198;2022-10-16T17:29:06;21.30;77.30
484;DHT22;228;48.922;12.198;2022-10-16T17:31:35;21.30;77.10
484;DHT22;228;48.922;12.198;2022-10-16T17:34:04;21.30;77.00
484;DHT22;228;48.922;12.198;2022-10-16T17:36:32;21.30;76.50
484;DHT22;228;48.922;12.198;2022-10-16T17:39:06;21.30;76.80
484;DHT22;228;48.922;12.198;2022-10-16T17:41:34;21.30;76.80
484;DHT22;228;48.922;12.198;2022-10-16T17:44:02;21.30;76.80
484;DHT22;228;48.922;12.198;2022-10-16T17:46:29;21.30;76.90
484;DHT22;228;48.922;12.198;2022-10-16T17:48:55;21.30;76.60
484;DHT22;228;48.922;12.198;2022-10-16T17:51:27;21.40;76.20
484;DHT22;228;48.922;12.198;2022-10-16T17:53:57;21.50;76.40
484;DHT22;228;48.922;12.198;2022-10-16T17:56:25;21.50;75.90
484;DHT22;228;48.922;12.198;2022-10-16T17:58:54;21.50;76.20
484;DHT22;228;48.922;12.198;2022-10-16T18:01:24;21.50;76.20
484;DHT22;228;48.922;12.198;2022-10-16T18:04:09;21.20;78.20
484;DHT22;228;48.922;12.198;2022-10-16T18:06:38;21.00;78.80
484;DHT22;228;48.922;12.198;2022-10-16T18:09:09;21.10;78.40
484;DHT22;228;48.922;12.198;2022-10-16T18:11:36;21.20;79.10
484;DHT22;228;48.922;12.198;2022-10-16T18:14:03;21.00;77.80
484;DHT22;228;48.922;12.198;2022-10-16T18:16:30;20.80;79.20
484;DHT22;228;48.922;12.198;2022-10-16T18:18:57;20.70;80.30
484;DHT22;228;48.922;12.198;2022-10-16T18:21:25;20.90;79.70
484;DHT22;228;48.922;12.198;2022-10-16T18:23:53;21.10;78.30
484;DHT22;228;48.922;12.198;2022-10-16T18:26:20;21.40;77.20
484;DHT22;228;48.922;12.198;2022-10-16T18:28:47;21.30;77.10
484;DHT22;228;48.922;12.198;2022-10-16T18:31:15;21.30;76.80
484;DHT22;228;48.922;12.198;2022-10-16T18:33:43;21.20;77.10